Time;durP1;ratioP1;P1;durP2;ratioP2;P2;SDS_P1;SDS_P2;PMS_P1;PMS_P2;Temp;Humidity;BMP_temperature;BMP_pressure;BME280_temperature;BME280_humidity;BME280_pressure;Samples;Min_cycle;Max_cycle;Signal;HPM_P1;HPM_P2
2021/09/07 00:01:49;;;;;;;3.60;2.95;;;23.90;52.40;;;;;;4994056;28;20037;-76
2021/09/07 00:04:14;;;;;;;3.33;3.03;;;23.90;52.60;;;;;;4994758;28;20053;-75
2021/09/07 00:06:40;;;;;;;4.68;2.90;;;23.90;52.20;;;;;;4993574;28;20404;-75
2021/09/07 00:09:06;;;;;;;4.25;3.25;;;23.90;52.00;;;;;;4993074;28;20041;-75
2021/09/07 00:11:31;;;;;;;3.60;2.90;;;23.80;52.30;;;;;;4993340;28;20049;-75
2021/09/07 00:13:57;;;;;;;4.55;3.17;;;23.70;52.40;;;;;;4993279;28;20118;-75
2021/09/07 00:16:23;;;;;;;5.13;3.42;;;23.60;52.60;;;;;;4995105;28;20097;-75
2021/09/07 00:18:48;;;;;;;4.93;3.10;;;23.70;53.60;;;;;;4991909;28;20034;-75
2021/09/07 00:21:14;;;;;;;3.85;2.80;;;23.60;52.70;;;;;;4992470;28;20018;-75
2021/09/07 00:23:40;;;;;;;5.03;2.90;;;23.60;53.10;;;;;;4978028;28;20049;-75
2021/09/07 00:26:05;;;;;;;3.90;2.95;;;23.60;53.00;;;;;;4977267;28;20111;-75
2021/09/07 00:28:31;;;;;;;3.00;2.50;;;23.70;52.90;;;;;;4994453;28;20145;-74
2021/09/07 00:30:57;;;;;;;3.20;2.80;;;23.60;52.50;;;;;;4990997;28;20038;-75
2021/09/07 00:33:22;;;;;;;4.50;2.92;;;23.60;53.00;;;;;;4992642;28;20109;-74
2021/09/07 00:35:48;;;;;;;3.63;3.22;;;23.60;52.90;;;;;;4992408;28;20165;-75
2021/09/07 00:38:14;;;;;;;4.03;2.90;;;23.60;53.10;;;;;;4992783;28;20112;-75
2021/09/07 00:40:39;;;;;;;5.35;3.00;;;23.50;53.00;;;;;;4994284;28;20030;-74
2021/09/07 00:43:05;;;;;;;3.78;2.97;;;23.50;53.30;;;;;;4992853;28;20058;-75
2021/09/07 00:45:31;;;;;;;4.22;2.88;;;23.40;53.50;;;;;;4991365;28;20026;-76
2021/09/07 00:47:56;;;;;;;5.15;3.17;;;23.30;53.40;;;;;;4992414;28;20022;-75
2021/09/07 00:50:22;;;;;;;3.90;3.10;;;23.30;53.60;;;;;;4992031;28;20037;-75
2021/09/07 00:52:49;;;;;;;3.75;2.95;;;23.30;53.70;;;;;;4993361;28;20073;-74
2021/09/07 00:55:16;;;;;;;4.15;3.22;;;23.20;54.00;;;;;;4994002;28;20041;-76
2021/09/07 00:57:44;;;;;;;4.40;2.85;;;23.20;55.00;;;;;;4990935;28;20034;-75
2021/09/07 01:00:10;;;;;;;3.80;3.08;;;23.20;54.00;;;;;;4991959;28;20514;-75
2021/09/07 01:02:37;;;;;;;5.93;3.15;;;23.20;54.00;;;;;;4990882;28;20046;-76
2021/09/07 01:05:04;;;;;;;5.15;3.05;;;23.20;53.80;;;;;;4991077;28;20069;-75
2021/09/07 01:07:35;;;;;;;4.85;2.92;;;23.20;53.60;;;;;;4993095;28;20109;-75
2021/09/07 01:10:03;;;;;;;3.63;2.90;;;23.20;53.70;;;;;;4990567;28;20453;-75
2021/09/07 01:12:29;;;;;;;4.25;2.83;;;23.20;53.80;;;;;;4990697;28;20036;-74
2021/09/07 01:14:55;;;;;;;3.72;2.97;;;23.20;53.60;;;;;;4990448;28;20018;-74
2021/09/07 01:17:21;;;;;;;3.47;2.97;;;23.20;53.60;;;;;;4991850;28;20491;-75
2021/09/07 01:19:49;;;;;;;3.28;2.92;;;23.10;53.80;;;;;;4992664;28;20077;-75
2021/09/07 01:22:16;;;;;;;4.47;3.30;;;23.00;53.60;;;;;;4993272;28;20046;-75
2021/09/07 01:24:42;;;;;;;4.85;2.92;;;23.00;54.00;;;;;;4991907;28;20022;-75
2021/09/07 01:27:09;;;;;;;4.22;3.00;;;22.90;53.80;;;;;;4996225;28;20026;-75
2021/09/07 01:29:37;;;;;;;3.88;2.95;;;22.90;54.00;;;;;;4991737;28;20049;-75
2021/09/07 01:32:05;;;;;;;4.88;3.42;;;22.90;54.10;;;;;;4991771;28;20070;-75
2021/09/07 01:34:31;;;;;;;5.78;3.30;;;22.80;54.20;;;;;;4993307;28;20390;-75
2021/09/07 01:36:57;;;;;;;3.83;3.28;;;22.80;54.50;;;;;;4991116;28;20037;-75
2021/09/07 01:39:24;;;;;;;4.40;3.20;;;22.80;54.50;;;;;;4990905;28;20109;-75
2021/09/07 01:41:50;;;;;;;4.45;3.08;;;22.70;54.50;;;;;;4991443;28;20034;-76
2021/09/07 01:44:18;;;;;;;3.50;2.65;;;22.70;54.30;;;;;;4959248;28;20487;-75
2021/09/07 01:46:44;;;;;;;4.22;3.20;;;22.70;54.30;;;;;;4991736;28;20049;-76
2021/09/07 01:49:11;;;;;;;3.85;3.20;;;22.70;54.70;;;;;;4992292;28;20038;-75
2021/09/07 01:51:41;;;;;;;4.97;2.88;;;22.70;54.60;;;;;;4991038;28;20038;-75
2021/09/07 01:54:08;;;;;;;5.72;3.30;;;22.70;54.60;;;;;;4989074;28;20042;-75
2021/09/07 01:56:34;;;;;;;4.38;2.92;;;22.60;54.70;;;;;;4988009;28;20037;-75
2021/09/07 01:59:00;;;;;;;4.03;2.95;;;22.60;54.70;;;;;;4985156;28;20058;-74
2021/09/07 02:01:26;;;;;;;4.10;2.90;;;22.60;54.80;;;;;;4992682;28;20031;-75
2021/09/07 02:03:51;;;;;;;5.00;3.05;;;22.50;54.80;;;;;;4991171;28;20045;-75
2021/09/07 02:06:17;;;;;;;3.65;2.85;;;22.50;54.90;;;;;;4989509;28;20061;-75
2021/09/07 02:08:43;;;;;;;3.80;2.90;;;22.40;54.90;;;;;;4995364;28;20039;-75
2021/09/07 02:11:08;;;;;;;4.90;2.90;;;22.40;55.00;;;;;;4991252;28;20033;-75
2021/09/07 02:13:34;;;;;;;4.13;2.80;;;22.50;54.90;;;;;;4992902;28;20034;-74
2021/09/07 02:16:00;;;;;;;4.45;2.92;;;22.40;55.00;;;;;;4988451;28;20027;-75
2021/09/07 02:18:25;;;;;;;4.68;3.05;;;22.50;54.70;;;;;;4974833;28;20034;-75
2021/09/07 02:20:51;;;;;;;3.97;2.88;;;22.50;54.70;;;;;;4989467;28;20031;-75
2021/09/07 02:23:17;;;;;;;3.38;2.75;;;22.50;54.70;;;;;;4989517;28;20072;-76
2021/09/07 02:25:42;;;;;;;5.90;3.00;;;22.50;54.60;;;;;;4991517;28;20388;-76
2021/09/07 02:28:08;;;;;;;5.35;3.00;;;22.50;54.60;;;;;;4991646;28;20018;-75
2021/09/07 02:30:34;;;;;;;3.92;3.22;;;22.40;54.80;;;;;;4989755;28;20504;-75
2021/09/07 02:33:00;;;;;;;5.90;3.13;;;22.30;55.10;;;;;;4989433;28;20169;-75
2021/09/07 02:35:27;;;;;;;5.30;2.80;;;22.30;55.40;;;;;;4990351;28;20093;-76
2021/09/07 02:37:53;;;;;;;4.40;2.88;;;22.20;55.20;;;;;;4990602;28;20097;-75
2021/09/07 02:40:19;;;;;;;3.47;2.75;;;22.10;55.60;;;;;;4992792;28;20050;-75
2021/09/07 02:42:44;;;;;;;4.45;2.90;;;22.10;55.60;;;;;;4990784;28;20502;-76
2021/09/07 02:45:10;;;;;;;4.10;3.30;;;22.10;55.60;;;;;;4989326;28;20030;-75
2021/09/07 02:47:40;;;;;;;4.20;2.88;;;22.10;55.90;;;;;;4989617;28;20514;-76
2021/09/07 02:50:10;;;;;;;4.82;3.05;;;22.00;55.90;;;;;;4975392;28;20023;-75
2021/09/07 02:52:35;;;;;;;4.78;3.00;;;22.10;55.90;;;;;;4988755;28;20030;-75
2021/09/07 02:55:01;;;;;;;4.38;2.80;;;22.10;55.60;;;;;;4989367;28;20030;-75
2021/09/07 02:57:27;;;;;;;7.43;3.17;;;22.00;55.40;;;;;;4990628;28;20038;-75
2021/09/07 02:59:53;;;;;;;4.95;3.30;;;22.00;55.90;;;;;;4988463;28;20026;-75
2021/09/07 03:02:19;;;;;;;3.97;2.83;;;21.90;55.80;;;;;;4991071;28;20070;-75
2021/09/07 03:04:45;;;;;;;4.65;2.95;;;21.90;55.70;;;;;;4992675;28;20465;-75
2021/09/07 03:07:10;;;;;;;3.90;2.90;;;21.80;55.50;;;;;;4995432;28;20038;-74
2021/09/07 03:09:36;;;;;;;5.65;3.10;;;21.80;55.90;;;;;;4994382;28;20034;-75
2021/09/07 03:12:02;;;;;;;3.67;2.65;;;21.80;55.70;;;;;;4993110;28;20430;-75
2021/09/07 03:14:28;;;;;;;3.67;3.15;;;21.90;55.80;;;;;;4994090;28;20030;-75
2021/09/07 03:16:53;;;;;;;5.47;2.95;;;21.80;56.10;;;;;;4994870;28;20039;-74
2021/09/07 03:19:19;;;;;;;6.22;3.50;;;21.80;56.00;;;;;;4994627;28;20022;-74
2021/09/07 03:21:45;;;;;;;3.75;3.05;;;21.70;56.00;;;;;;4993007;28;20031;-75
2021/09/07 03:24:11;;;;;;;4.38;3.17;;;21.70;56.10;;;;;;4994002;28;20415;-75
2021/09/07 03:26:36;;;;;;;3.33;2.97;;;21.70;56.00;;;;;;4992319;28;20398;-74
2021/09/07 03:29:02;;;;;;;5.65;2.88;;;21.70;56.30;;;;;;4993769;28;20037;-74
2021/09/07 03:31:27;;;;;;;4.45;3.10;;;21.60;56.40;;;;;;4995301;28;20495;-75
2021/09/07 03:33:54;;;;;;;4.78;2.85;;;21.50;56.60;;;;;;4993841;28;20026;-74
2021/09/07 03:36:19;;;;;;;4.22;2.92;;;21.50;56.80;;;;;;4993679;28;20033;-75
2021/09/07 03:38:45;;;;;;;4.10;2.92;;;21.50;56.80;;;;;;4992081;28;20022;-74
2021/09/07 03:41:12;;;;;;;5.85;2.90;;;21.50;56.90;;;;;;4992728;28;20396;-74
2021/09/07 03:43:38;;;;;;;4.20;3.15;;;21.50;57.00;;;;;;4994935;28;20034;-75
2021/09/07 03:46:03;;;;;;;5.65;3.30;;;21.40;57.10;;;;;;4994025;28;20018;-76
2021/09/07 03:48:30;;;;;;;3.55;2.90;;;21.40;57.20;;;;;;4992059;28;20026;-75
2021/09/07 03:50:55;;;;;;;3.97;2.80;;;21.40;57.30;;;;;;4992360;28;20109;-76
2021/09/07 03:53:21;;;;;;;4.32;2.88;;;21.30;57.30;;;;;;4993619;28;20117;-75
2021/09/07 03:55:47;;;;;;;4.13;2.90;;;21.40;57.30;;;;;;4994483;28;20112;-75
2021/09/07 03:58:12;;;;;;;6.20;3.20;;;21.30;56.80;;;;;;4977084;28;20037;-75
2021/09/07 04:00:38;;;;;;;3.75;3.00;;;21.30;57.00;;;;;;4992294;28;20022;-75
2021/09/07 04:03:12;;;;;;;5.15;2.88;;;21.40;57.00;;;;;;4991300;28;20518;-76
2021/09/07 04:05:38;;;;;;;3.78;2.78;;;21.30;56.90;;;;;;4991681;28;20035;-76
2021/09/07 04:08:04;;;;;;;6.15;3.15;;;21.30;57.20;;;;;;4992682;28;20034;-75
2021/09/07 04:10:29;;;;;;;3.65;3.08;;;21.30;57.00;;;;;;4994666;28;20105;-76
2021/09/07 04:12:55;;;;;;;5.65;2.83;;;21.30;57.10;;;;;;4992269;28;20040;-76
2021/09/07 04:15:21;;;;;;;4.70;2.70;;;21.30;57.10;;;;;;4991927;28;20034;-76
2021/09/07 04:17:46;;;;;;;4.07;2.80;;;21.30;56.90;;;;;;4991865;28;20034;-76
2021/09/07 04:20:12;;;;;;;4.45;3.25;;;21.30;56.80;;;;;;4992400;28;20018;-76
2021/09/07 04:22:38;;;;;;;4.72;3.00;;;21.30;56.80;;;;;;4994302;28;20038;-76
2021/09/07 04:25:04;;;;;;;4.43;2.80;;;21.30;56.60;;;;;;4993278;28;20517;-76
2021/09/07 04:27:29;;;;;;;3.92;2.80;;;21.30;56.40;;;;;;4992467;28;20034;-76
2021/09/07 04:29:55;;;;;;;4.75;2.90;;;21.40;56.40;;;;;;4991135;28;20372;-76
2021/09/07 04:32:21;;;;;;;6.53;3.22;;;21.40;56.60;;;;;;4991234;28;20129;-76
2021/09/07 04:34:46;;;;;;;4.13;3.08;;;21.40;56.20;;;;;;4993426;28;20023;-76
2021/09/07 04:37:12;;;;;;;4.90;3.22;;;21.40;55.90;;;;;;4993121;28;20105;-76
2021/09/07 04:39:37;;;;;;;5.00;3.20;;;21.30;55.90;;;;;;4992711;28;20027;-74
2021/09/07 04:42:04;;;;;;;5.10;2.83;;;21.30;56.30;;;;;;4991744;28;20038;-76
2021/09/07 04:44:29;;;;;;;5.43;2.83;;;21.30;56.30;;;;;;4991441;28;20035;-75
2021/09/07 04:46:55;;;;;;;5.63;3.10;;;21.30;56.10;;;;;;4991601;28;20030;-76
2021/09/07 04:49:20;;;;;;;4.10;2.90;;;21.30;56.40;;;;;;4976669;28;20031;-76
2021/09/07 04:51:46;;;;;;;4.25;2.75;;;21.20;56.30;;;;;;4990900;28;20060;-76
2021/09/07 04:54:12;;;;;;;5.03;3.03;;;21.10;56.40;;;;;;4991411;28;20121;-76
2021/09/07 04:56:37;;;;;;;4.47;3.05;;;21.00;56.60;;;;;;4975118;28;20525;-73
2021/09/07 04:59:03;;;;;;;3.75;2.85;;;21.00;56.70;;;;;;4991839;28;20418;-74
2021/09/07 05:01:29;;;;;;;3.72;2.75;;;21.00;56.80;;;;;;4993606;28;20088;-76
2021/09/07 05:03:54;;;;;;;4.78;3.10;;;21.00;56.80;;;;;;4990583;28;20065;-68
2021/09/07 05:06:20;;;;;;;4.72;3.03;;;21.00;57.00;;;;;;4990970;28;20027;-75
2021/09/07 05:08:46;;;;;;;4.03;3.03;;;21.00;56.90;;;;;;4991408;28;20041;-76
2021/09/07 05:11:12;;;;;;;5.32;2.92;;;21.00;56.80;;;;;;4991458;28;20069;-76
2021/09/07 05:13:37;;;;;;;4.30;3.00;;;20.90;56.90;;;;;;4975199;28;20042;-76
2021/09/07 05:16:04;;;;;;;4.95;3.00;;;20.90;57.00;;;;;;4991575;28;20023;-71
2021/09/07 05:18:29;;;;;;;3.72;2.80;;;20.90;57.10;;;;;;4990302;28;20022;-76
2021/09/07 05:20:55;;;;;;;4.00;2.88;;;20.90;57.00;;;;;;4991851;28;20053;-76
2021/09/07 05:23:20;;;;;;;5.45;2.90;;;20.90;57.10;;;;;;4991280;28;20109;-76
2021/09/07 05:25:47;;;;;;;4.43;3.22;;;20.80;57.20;;;;;;4992547;28;20049;-76
2021/09/07 05:28:12;;;;;;;4.47;3.30;;;20.80;57.40;;;;;;4989481;28;20030;-76
2021/09/07 05:30:38;;;;;;;4.40;3.10;;;20.70;57.30;;;;;;4989044;28;20033;-76
2021/09/07 05:33:06;;;;;;;4.55;3.50;;;20.80;57.30;;;;;;4990944;28;20030;-76
2021/09/07 05:35:32;;;;;;;4.47;2.92;;;20.70;57.50;;;;;;4991127;28;20483;-75
2021/09/07 05:37:58;;;;;;;6.07;3.03;;;20.60;57.60;;;;;;4991498;28;20045;-77
2021/09/07 05:40:23;;;;;;;4.78;3.20;;;20.60;58.00;;;;;;4992084;28;20045;-76
2021/09/07 05:42:49;;;;;;;5.25;3.17;;;20.60;58.10;;;;;;4975820;28;20499;-74
2021/09/07 05:45:17;;;;;;;4.72;3.40;;;20.50;58.00;;;;;;4989700;28;20495;-77
2021/09/07 05:47:43;;;;;;;5.53;3.20;;;20.50;58.10;;;;;;4989433;28;20026;-76
2021/09/07 05:50:10;;;;;;;4.85;3.45;;;20.50;58.10;;;;;;4990595;28;20050;-75
2021/09/07 05:52:36;;;;;;;6.03;3.47;;;20.70;58.00;;;;;;4993046;28;20514;-76
2021/09/07 05:55:02;;;;;;;4.95;3.05;;;20.70;57.80;;;;;;4981916;28;20027;-74
2021/09/07 05:57:28;;;;;;;4.32;2.80;;;20.80;57.30;;;;;;4987248;28;20030;-75
2021/09/07 05:59:55;;;;;;;3.95;3.25;;;20.90;57.20;;;;;;4989958;28;20018;-74
2021/09/07 06:02:22;;;;;;;6.40;3.35;;;21.10;56.90;;;;;;4973176;28;20125;-75
2021/09/07 06:04:48;;;;;;;3.90;3.05;;;21.10;56.60;;;;;;4987287;28;20418;-75
2021/09/07 06:07:13;;;;;;;3.83;2.97;;;21.30;56.60;;;;;;4990963;28;20238;-76
2021/09/07 06:09:39;;;;;;;4.60;3.53;;;21.30;56.10;;;;;;4988273;28;20459;-75
2021/09/07 06:12:05;;;;;;;8.13;3.75;;;21.40;55.50;;;;;;4987724;28;20491;-75
2021/09/07 06:14:33;;;;;;;4.60;3.20;;;21.40;55.40;;;;;;4990456;28;20026;-74
2021/09/07 06:16:59;;;;;;;3.92;3.30;;;21.60;55.50;;;;;;4990637;28;20018;-74
2021/09/07 06:19:25;;;;;;;3.72;3.08;;;21.70;55.10;;;;;;4990624;28;20033;-75
2021/09/07 06:21:51;;;;;;;4.47;3.30;;;21.80;54.90;;;;;;4989308;28;20430;-73
2021/09/07 06:24:17;;;;;;;4.10;3.17;;;21.90;54.30;;;;;;4989702;28;20084;-73
2021/09/07 06:26:42;;;;;;;7.50;3.05;;;22.00;54.00;;;;;;4988610;28;20015;-72
2021/09/07 06:29:08;;;;;;;5.10;3.10;;;22.10;53.80;;;;;;4988601;28;20033;-74
2021/09/07 06:31:34;;;;;;;4.63;3.35;;;22.10;53.80;;;;;;4992305;28;20082;-73
2021/09/07 06:33:59;;;;;;;6.75;3.30;;;22.30;53.70;;;;;;4988798;28;20031;-73
2021/09/07 06:36:25;;;;;;;4.50;3.05;;;22.40;52.60;;;;;;4990177;28;20635;-73
2021/09/07 06:38:50;;;;;;;5.28;3.30;;;22.40;53.00;;;;;;4988412;28;20555;-73
2021/09/07 06:41:16;;;;;;;5.32;3.30;;;22.40;52.20;;;;;;4988180;28;20109;-73
2021/09/07 06:43:42;;;;;;;4.18;3.40;;;22.50;52.50;;;;;;4991019;28;20053;-72
2021/09/07 06:46:08;;;;;;;5.85;3.33;;;22.70;52.60;;;;;;4988721;28;20475;-72
2021/09/07 06:48:33;;;;;;;8.25;3.03;;;22.60;51.20;;;;;;4988629;28;20030;-72
2021/09/07 06:50:59;;;;;;;5.10;3.10;;;22.70;52.20;;;;;;4988020;28;20106;-73
2021/09/07 06:53:25;;;;;;;4.13;3.50;;;22.80;51.40;;;;;;4988497;28;20026;-73
2021/09/07 06:55:51;;;;;;;5.20;3.38;;;22.70;51.20;;;;;;4989473;28;20467;-73
2021/09/07 06:58:16;;;;;;;5.60;3.03;;;22.70;51.10;;;;;;4991608;28;20439;-73
2021/09/07 07:00:42;;;;;;;6.05;3.75;;;22.80;51.10;;;;;;4989800;28;20039;-73
2021/09/07 07:03:07;;;;;;;4.82;2.97;;;22.80;50.60;;;;;;4971670;28;20419;-73
2021/09/07 07:05:33;;;;;;;4.72;3.08;;;23.00;50.60;;;;;;4989083;28;20114;-74
2021/09/07 07:07:59;;;;;;;4.03;2.85;;;23.00;51.10;;;;;;4989717;28;20054;-73
2021/09/07 07:10:24;;;;;;;3.75;2.90;;;23.20;50.30;;;;;;4991550;28;20022;-73
2021/09/07 07:12:50;;;;;;;7.03;3.47;;;23.40;50.20;;;;;;4989943;28;20110;-73
2021/09/07 07:15:16;;;;;;;8.80;2.97;;;23.40;49.60;;;;;;4973607;28;20221;-74
2021/09/07 07:17:41;;;;;;;3.90;3.08;;;23.60;49.20;;;;;;4990118;28;20105;-74
2021/09/07 07:20:08;;;;;;;4.43;3.05;;;23.60;49.20;;;;;;4988443;28;20030;-74
2021/09/07 07:22:33;;;;;;;3.33;2.90;;;23.60;49.00;;;;;;4987715;28;20046;-74
2021/09/07 07:24:59;;;;;;;5.10;3.10;;;23.70;49.40;;;;;;4989430;28;20030;-74
2021/09/07 07:27:24;;;;;;;3.70;2.97;;;24.00;49.10;;;;;;4989985;28;20041;-74
2021/09/07 07:29:50;;;;;;;3.28;2.80;;;24.00;48.10;;;;;;4985300;28;20030;-74
2021/09/07 07:32:16;;;;;;;3.55;2.97;;;24.30;48.80;;;;;;4988333;28;20109;-74
2021/09/07 07:34:42;;;;;;;3.90;2.72;;;24.50;47.90;;;;;;4990170;28;20034;-74
2021/09/07 07:37:07;;;;;;;3.47;2.67;;;24.60;47.40;;;;;;4988904;28;20077;-74
2021/09/07 07:39:33;;;;;;;4.63;2.72;;;24.90;48.30;;;;;;4988257;28;20394;-74
2021/09/07 07:41:59;;;;;;;5.85;3.50;;;25.10;46.20;;;;;;4989215;28;20034;-74
2021/09/07 07:44:25;;;;;;;4.40;3.10;;;25.10;46.30;;;;;;4989313;28;20050;-74
2021/09/07 07:46:51;;;;;;;3.65;2.90;;;25.20;45.20;;;;;;4973069;28;20030;-74
2021/09/07 07:49:16;;;;;;;3.92;3.10;;;25.00;45.50;;;;;;4989637;28;20137;-74
2021/09/07 07:51:43;;;;;;;4.55;3.22;;;25.00;46.40;;;;;;4989097;28;20038;-74
2021/09/07 07:54:09;;;;;;;3.55;3.05;;;25.60;47.40;;;;;;4992802;28;20113;-74
2021/09/07 07:56:36;;;;;;;4.35;3.20;;;25.80;45.50;;;;;;4991656;28;20495;-75
2021/09/07 07:59:02;;;;;;;4.07;3.08;;;25.80;44.60;;;;;;4992361;28;20034;-74
2021/09/07 08:01:28;;;;;;;3.70;3.10;;;25.70;44.20;;;;;;4997628;28;20380;-74
2021/09/07 08:03:54;;;;;;;3.63;2.97;;;25.70;45.40;;;;;;4998347;28;20046;-74
2021/09/07 08:06:19;;;;;;;6.28;3.10;;;25.80;44.90;;;;;;4998319;28;20018;-74
2021/09/07 08:08:45;;;;;;;4.63;2.95;;;26.10;44.80;;;;;;4997575;28;20026;-74
2021/09/07 08:11:11;;;;;;;5.18;3.20;;;26.20;44.80;;;;;;4991883;28;20110;-73
2021/09/07 08:13:37;;;;;;;4.55;2.85;;;26.40;45.10;;;;;;4994833;28;20030;-73
2021/09/07 08:16:02;;;;;;;4.22;2.90;;;26.70;44.40;;;;;;4991395;28;20027;-74
2021/09/07 08:18:28;;;;;;;4.90;2.85;;;26.80;43.50;;;;;;4990728;28;20042;-73
2021/09/07 08:20:54;;;;;;;5.43;3.10;;;26.60;43.60;;;;;;4993294;28;20644;-74
2021/09/07 08:23:19;;;;;;;5.30;2.75;;;26.60;42.40;;;;;;4992015;28;20041;-74
2021/09/07 08:25:45;;;;;;;5.00;2.78;;;26.80;43.80;;;;;;4994192;28;20022;-74
2021/09/07 08:28:11;;;;;;;4.95;2.70;;;26.90;41.70;;;;;;4992322;28;20360;-74
2021/09/07 08:30:36;;;;;;;3.17;2.45;;;27.10;43.80;;;;;;4991409;28;20093;-73
2021/09/07 08:33:03;;;;;;;5.78;2.80;;;27.60;42.70;;;;;;4991572;28;20457;-74
2021/09/07 08:35:28;;;;;;;5.20;2.80;;;27.70;42.10;;;;;;4991573;28;20149;-74
2021/09/07 08:37:54;;;;;;;4.05;3.10;;;27.60;41.30;;;;;;4993128;28;20062;-74
2021/09/07 08:40:20;;;;;;;4.20;2.92;;;27.90;42.70;;;;;;4993021;28;20446;-74
2021/09/07 08:42:45;;;;;;;8.25;2.90;;;28.00;41.20;;;;;;4991352;28;20047;-74
2021/09/07 08:45:14;;;;;;;4.13;2.95;;;28.00;41.50;;;;;;4992342;28;20029;-74
2021/09/07 08:47:42;;;;;;;3.55;2.50;;;28.20;40.30;;;;;;4992623;28;20542;-74
2021/09/07 08:50:08;;;;;;;3.90;2.80;;;28.40;42.10;;;;;;4989692;28;20027;-74
2021/09/07 08:52:33;;;;;;;5.95;3.20;;;28.80;40.20;;;;;;4989573;28;20033;-74
2021/09/07 08:54:59;;;;;;;3.80;2.92;;;29.00;39.80;;;;;;4991062;28;20081;-74
2021/09/07 08:57:25;;;;;;;2.90;2.60;;;28.90;39.20;;;;;;4992237;28;20037;-74
2021/09/07 08:59:59;;;;;;;4.70;3.00;;;29.20;40.50;;;;;;4991047;28;20058;-74
2021/09/07 09:02:26;;;;;;;5.43;2.83;;;29.40;38.00;;;;;;4991292;28;20038;-74
2021/09/07 09:04:54;;;;;;;4.80;2.83;;;29.10;39.30;;;;;;4992037;28;20085;-75
2021/09/07 09:07:26;;;;;;;3.22;2.78;;;29.20;38.90;;;;;;4994128;28;20511;-74
2021/09/07 09:09:55;;;;;;;3.38;2.70;;;29.60;40.60;;;;;;4992190;28;20027;-74
2021/09/07 09:12:31;;;;;;;3.60;2.70;;;29.80;37.30;;;;;;4992373;28;20502;-74
2021/09/07 09:14:58;;;;;;;5.35;2.35;;;29.70;38.30;;;;;;4992023;28;20394;-75
2021/09/07 09:17:31;;;;;;;2.88;2.60;;;29.90;38.20;;;;;;4990208;28;20023;-74
2021/09/07 09:19:59;;;;;;;3.70;3.13;;;29.70;36.40;;;;;;4992449;28;20517;-74
2021/09/07 09:22:48;;;;;;;4.05;2.30;;;29.80;36.80;;;;;;4991456;28;20129;-74
2021/09/07 09:25:23;;;;;;;3.70;2.40;;;29.90;37.20;;;;;;4992935;28;20073;-74
2021/09/07 09:28:05;;;;;;;4.30;2.60;;;30.10;36.60;;;;;;4991575;28;20026;-73
2021/09/07 09:30:35;;;;;;;5.88;2.90;;;30.10;35.80;;;;;;4988750;28;20445;-74
2021/09/07 09:33:00;;;;;;;2.88;2.35;;;30.30;36.20;;;;;;4980572;28;20515;-74
2021/09/07 09:35:27;;;;;;;3.40;2.33;;;30.30;35.00;;;;;;4973732;28;20128;-73
2021/09/07 09:37:57;;;;;;;4.40;2.70;;;30.10;33.80;;;;;;4990276;28;20050;-73
2021/09/07 09:40:23;;;;;;;4.18;2.75;;;30.30;35.20;;;;;;4985705;28;20034;-72
2021/09/07 09:42:49;;;;;;;3.63;2.50;;;30.00;34.40;;;;;;4985642;28;20046;-74
2021/09/07 09:45:16;;;;;;;3.97;2.40;;;30.50;35.10;;;;;;4984984;28;20552;-72
2021/09/07 09:47:51;;;;;;;16.70;2.63;;;30.60;34.50;;;;;;4986396;28;20026;-73
2021/09/07 09:50:18;;;;;;;3.80;2.50;;;30.80;33.70;;;;;;4983614;28;20026;-70
2021/09/07 09:52:45;;;;;;;3.58;2.78;;;30.40;33.10;;;;;;4992552;28;20170;-74
2021/09/07 09:55:13;;;;;;;3.38;2.50;;;30.20;32.50;;;;;;4974304;28;20033;-74
2021/09/07 09:57:40;;;;;;;3.13;2.50;;;30.30;33.60;;;;;;4989115;28;20052;-74
2021/09/07 10:00:09;;;;;;;3.72;2.45;;;30.40;33.30;;;;;;4989609;28;20022;-73
2021/09/07 10:02:35;;;;;;;3.15;2.30;;;30.30;33.00;;;;;;4991216;28;20038;-74
2021/09/07 10:05:01;;;;;;;3.85;2.45;;;30.30;32.50;;;;;;4991089;28;20034;-74
2021/09/07 10:07:27;;;;;;;3.60;2.30;;;30.30;33.80;;;;;;4993520;28;20070;-74
2021/09/07 10:09:57;;;;;;;4.05;2.40;;;30.80;33.90;;;;;;4990191;28;20049;-74
2021/09/07 10:12:36;;;;;;;5.63;2.63;;;30.90;33.60;;;;;;4974932;28;20388;-74
2021/09/07 10:15:22;;;;;;;4.57;2.60;;;30.70;33.20;;;;;;4989679;28;20015;-72
2021/09/07 10:17:51;;;;;;;4.40;2.30;;;30.50;33.40;;;;;;4992350;28;20030;-72
2021/09/07 10:20:47;;;;;;;3.58;2.58;;;30.30;33.30;;;;;;4991515;28;20026;-75
2021/09/07 10:23:31;;;;;;;4.55;2.40;;;30.20;34.20;;;;;;4974969;28;20113;-73
2021/09/07 10:25:59;;;;;;;6.45;2.60;;;30.10;33.60;;;;;;4991464;28;20023;-73
2021/09/07 10:28:44;;;;;;;5.35;2.63;;;30.00;33.80;;;;;;4991629;28;20022;-75
2021/09/07 10:31:18;;;;;;;4.25;2.63;;;29.90;34.20;;;;;;4991643;28;20070;-73
2021/09/07 10:34:02;;;;;;;3.83;2.60;;;29.80;34.20;;;;;;4973508;28;20125;-74
2021/09/07 10:36:35;;;;;;;11.48;2.90;;;29.50;34.80;;;;;;4989113;28;20154;-74
2021/09/07 10:39:03;;;;;;;3.80;2.50;;;29.60;34.80;;;;;;4989284;28;20026;-75
2021/09/07 10:41:38;;;;;;;6.88;2.90;;;29.50;34.30;;;;;;4990717;28;20037;-73
2021/09/07 10:44:04;;;;;;;3.75;2.65;;;29.30;34.40;;;;;;4989594;28;20062;-73
2021/09/07 10:46:40;;;;;;;9.38;2.80;;;29.50;34.70;;;;;;4992213;28;20026;-73
2021/09/07 10:49:16;;;;;;;5.00;2.92;;;29.70;34.20;;;;;;4989426;28;20082;-76
2021/09/07 10:52:04;;;;;;;3.53;2.45;;;29.80;33.80;;;;;;4970130;28;20495;-75
2021/09/07 10:54:30;;;;;;;3.97;2.60;;;30.00;34.10;;;;;;4990946;28;20512;-75
2021/09/07 10:56:58;;;;;;;3.42;2.10;;;29.90;33.40;;;;;;4982158;28;20066;-74
2021/09/07 10:59:43;;;;;;;2.53;2.33;;;29.90;33.50;;;;;;4978468;28;20494;-75
2021/09/07 11:02:38;;;;;;;4.03;2.40;;;30.10;34.80;;;;;;4974988;28;20038;-75
2021/09/07 11:05:05;;;;;;;4.72;2.40;;;30.30;33.60;;;;;;4982381;28;20026;-73
2021/09/07 11:07:40;;;;;;;3.67;2.20;;;30.40;32.60;;;;;;4992460;28;20559;-74
2021/09/07 11:10:16;;;;;;;4.72;2.40;;;30.70;33.60;;;;;;4989681;28;20407;-73
2021/09/07 11:12:58;;;;;;;2.53;2.20;;;31.10;32.60;;;;;;4985492;28;20487;-73
2021/09/07 11:15:26;;;;;;;4.07;2.60;;;31.40;32.90;;;;;;4984158;28;20030;-74
2021/09/07 11:17:57;;;;;;;3.08;2.40;;;31.60;31.50;;;;;;4990598;28;20567;-73
2021/09/07 11:20:30;;;;;;;3.97;2.15;;;31.50;31.20;;;;;;4983268;28;20030;-74
2021/09/07 11:22:59;;;;;;;3.60;2.30;;;31.80;30.20;;;;;;4990533;28;20042;-74
2021/09/07 11:25:25;;;;;;;5.03;2.22;;;32.10;29.90;;;;;;4992305;28;20541;-74
2021/09/07 11:28:03;;;;;;;3.50;2.15;;;32.00;29.80;;;;;;4976507;28;20034;-74
2021/09/07 11:30:38;;;;;;;3.45;2.03;;;31.80;29.10;;;;;;4988754;28;20113;-74
2021/09/07 11:33:23;;;;;;;3.45;2.38;;;31.50;29.40;;;;;;4992739;28;20434;-74
2021/09/07 11:35:52;;;;;;;5.03;2.30;;;31.50;30.00;;;;;;4991933;28;20026;-74
2021/09/07 11:38:24;;;;;;;4.13;2.28;;;31.60;30.00;;;;;;4976220;28;20026;-74
2021/09/07 11:41:11;;;;;;;3.08;2.53;;;31.70;29.30;;;;;;4969723;28;20396;-74
2021/09/07 11:43:36;;;;;;;4.50;2.47;;;31.80;29.80;;;;;;4990478;28;20077;-75
2021/09/07 11:46:23;;;;;;;2.53;2.10;;;32.00;29.50;;;;;;4985674;28;20034;-74
2021/09/07 11:48:52;;;;;;;4.35;2.38;;;32.30;30.10;;;;;;4986292;28;20487;-74
2021/09/07 11:51:32;;;;;;;4.35;2.42;;;32.60;29.30;;;;;;4993641;28;20026;-74
2021/09/07 11:54:06;;;;;;;5.25;2.10;;;32.30;28.60;;;;;;4988810;28;20026;-74
2021/09/07 11:56:34;;;;;;;3.75;1.90;;;32.10;29.50;;;;;;4987623;28;20322;-74
2021/09/07 11:59:16;;;;;;;3.60;2.40;;;32.40;29.60;;;;;;4975899;28;20396;-74
2021/09/07 12:01:43;;;;;;;4.03;2.50;;;32.10;29.10;;;;;;4991997;28;20022;-74
2021/09/07 12:04:14;;;;;;;4.63;2.40;;;32.10;29.90;;;;;;4992993;28;20042;-74
2021/09/07 12:06:46;;;;;;;2.72;2.28;;;32.60;29.90;;;;;;4992183;28;20477;-74
2021/09/07 12:09:12;;;;;;;4.43;2.45;;;33.30;29.60;;;;;;4993539;28;20069;-74
2021/09/07 12:11:38;;;;;;;2.47;2.10;;;32.90;28.90;;;;;;4993547;28;20015;-75
2021/09/07 12:14:11;;;;;;;5.07;2.15;;;33.10;29.10;;;;;;4992845;28;20033;-74
2021/09/07 12:16:57;;;;;;;2.92;2.28;;;33.50;29.20;;;;;;4991566;28;20026;-74
2021/09/07 12:19:35;;;;;;;2.50;2.08;;;33.90;28.70;;;;;;4993849;28;20038;-73
2021/09/07 12:22:17;;;;;;;2.67;1.80;;;33.80;27.80;;;;;;4972372;28;20041;-75
2021/09/07 12:24:58;;;;;;;2.90;2.15;;;34.00;27.90;;;;;;4992863;28;20030;-75
2021/09/07 12:27:25;;;;;;;;;;;33.90;28.20;;;;;;4993599;28;20022;-74
2021/09/07 12:30:18;;;;;;;4.50;2.10;;;34.30;27.30;;;;;;4991944;28;19910;-75
2021/09/07 12:33:17;;;;;;;2.38;1.98;;;34.70;27.20;;;;;;4988423;28;20511;-75
2021/09/07 12:35:53;;;;;;;2.42;2.00;;;34.90;27.80;;;;;;4993232;28;20052;-75
2021/09/07 12:38:27;;;;;;;3.28;2.20;;;35.10;27.40;;;;;;4991208;28;20030;-75
2021/09/07 12:40:55;;;;;;;2.95;2.03;;;35.10;26.60;;;;;;4993637;28;20522;-75
2021/09/07 12:43:23;;;;;;;4.63;2.03;;;35.50;25.70;;;;;;4993169;28;20525;-75
2021/09/07 12:45:55;;;;;;;2.33;2.00;;;36.20;25.60;;;;;;4992881;28;20053;-74
2021/09/07 12:48:21;;;;;;;3.08;1.90;;;37.00;25.50;;;;;;4991316;28;20027;-75
2021/09/07 12:50:47;;;;;;;2.97;2.10;;;37.40;24.40;;;;;;4992743;28;20480;-75
2021/09/07 12:53:16;;;;;;;2.75;1.90;;;37.40;23.30;;;;;;4991321;28;20034;-74